createdAt,value
2022-11-23T00:02:30.355Z,10.02
2022-11-23T00:09:32.171Z,8.05
2022-11-23T00:16:33.922Z,11.02
2022-11-23T00:23:35.900Z,8.85
2022-11-23T00:30:37.453Z,9.73
2022-11-23T00:37:39.356Z,6.80
2022-11-23T00:44:40.901Z,10.32
2022-11-23T00:51:42.455Z,10.73
2022-11-23T00:58:50.890Z,10.55
2022-11-23T01:05:52.523Z,10.98
2022-11-23T01:12:55.604Z,12.98
2022-11-23T01:19:57.173Z,8.77
2022-11-23T01:26:58.809Z,11.27
2022-11-23T01:34:02.395Z,9.77
2022-11-23T01:41:05.735Z,12.10
2022-11-23T01:48:17.916Z,9.90
2022-11-23T01:55:19.522Z,13.68
2022-11-23T02:02:21.130Z,9.57
2022-11-23T02:09:27.189Z,9.52
2022-11-23T02:16:28.801Z,11.82
2022-11-23T02:23:57.450Z,10.00
2022-11-23T02:30:59.018Z,11.90
2022-11-23T02:38:04.877Z,8.55
2022-11-23T02:45:06.398Z,7.10
2022-11-23T02:52:08.264Z,10.27
2022-11-23T02:59:09.842Z,10.23
2022-11-23T03:06:11.763Z,6.95
2022-11-23T03:13:13.402Z,9.95
2022-11-23T03:20:16.392Z,11.30
2022-11-23T03:27:20.589Z,8.85
2022-11-23T03:34:22.786Z,9.75
2022-11-23T03:41:25.566Z,9.93
2022-11-23T03:48:28.403Z,8.85
2022-11-23T03:55:30.091Z,9.98
2022-11-23T04:02:33.165Z,10.82
2022-11-23T04:09:41.439Z,7.63
2022-11-23T04:16:58.230Z,6.75
2022-11-23T04:24:00.134Z,8.60
2022-11-23T04:31:04.792Z,11.25
2022-11-23T04:38:16.591Z,9.82
2022-11-23T04:45:18.263Z,10.07
2022-11-23T04:52:20.172Z,9.77
2022-11-23T04:59:25.095Z,8.38
2022-11-23T05:06:27.312Z,7.72
2022-11-23T05:13:29.654Z,9.80
2022-11-23T05:20:32.563Z,10.38
2022-11-23T05:27:35.179Z,7.68
2022-11-23T05:34:36.844Z,8.80
2022-11-23T05:41:39.714Z,8.88
2022-11-23T05:48:53.918Z,8.38
2022-11-23T05:56:02.063Z,8.38
2022-11-23T06:03:08.836Z,8.98
2022-11-23T06:10:10.984Z,8.48
2022-11-23T06:17:15.527Z,5.97
2022-11-23T06:24:24.407Z,7.72
2022-11-23T06:31:46.099Z,8.13
2022-11-23T06:38:48.302Z,8.45
2022-11-23T06:45:55.154Z,7.57
2022-11-23T06:52:59.758Z,7.40
2022-11-23T07:00:11.551Z,8.65
2022-11-23T07:07:13.874Z,9.38
2022-11-23T07:14:23.063Z,8.70
2022-11-23T07:21:26.256Z,7.70
2022-11-23T07:28:28.309Z,10.10
2022-11-23T07:35:30.026Z,8.35
2022-11-23T07:42:36.835Z,9.85
2022-11-23T07:49:42.861Z,6.82
2022-11-23T07:56:44.411Z,9.80
2022-11-23T08:03:46.370Z,8.10
2022-11-23T08:10:53.019Z,8.23
2022-11-23T08:18:00.157Z,7.82
2022-11-23T08:25:01.730Z,7.07
2022-11-23T08:32:03.339Z,9.02
2022-11-23T08:39:05.084Z,9.27
2022-11-23T08:46:10.858Z,7.82
2022-11-23T08:53:12.913Z,10.25
2022-11-23T09:00:15.084Z,7.97
2022-11-23T09:07:16.692Z,6.93
2022-11-23T09:14:18.425Z,9.13
2022-11-23T09:21:20.532Z,9.55
2022-11-23T09:28:24.315Z,9.30
2022-11-23T09:35:25.886Z,6.38
2022-11-23T09:42:54.507Z,7.85
2022-11-23T09:50:08.183Z,9.48
2022-11-23T09:57:09.883Z,9.35
2022-11-23T10:04:16.561Z,7.85
2022-11-23T10:11:43.971Z,7.47
2022-11-23T10:19:05.514Z,6.65
2022-11-23T10:26:13.132Z,6.97
2022-11-23T10:33:31.403Z,7.15
2022-11-23T10:40:33.014Z,8.20
2022-11-23T10:47:50.650Z,9.00
2022-11-23T10:54:53.565Z,8.35
2022-11-23T11:02:18.548Z,7.15
2022-11-23T11:09:20.909Z,7.10
2022-11-23T11:16:26.636Z,7.32
2022-11-23T11:23:28.722Z,6.25
2022-11-23T11:30:42.519Z,5.90
2022-11-23T11:37:45.389Z,6.65
2022-11-23T11:44:47.255Z,8.95
2022-11-23T11:51:51.792Z,7.60
2022-11-23T11:59:17.971Z,7.88
2022-11-23T12:06:32.830Z,7.80
2022-11-23T12:13:35.601Z,8.30
2022-11-23T12:20:40.056Z,7.28
2022-11-23T12:28:11.228Z,7.25
2022-11-23T12:35:45.119Z,7.93
2022-11-23T12:42:55.564Z,8.25
2022-11-23T12:50:18.345Z,6.10
2022-11-23T12:57:28.358Z,6.93
2022-11-23T13:04:44.288Z,7.23
2022-11-23T13:12:05.808Z,7.68
2022-11-23T13:19:27.237Z,6.38
2022-11-23T13:26:29.370Z,6.65
2022-11-23T13:33:37.802Z,6.45
2022-11-23T13:40:39.779Z,6.72
2022-11-23T13:47:43.798Z,6.22
2022-11-23T13:55:03.967Z,6.13
2022-11-23T14:02:10.328Z,6.00
2022-11-23T14:09:19.678Z,6.40
2022-11-23T14:16:41.128Z,6.40
2022-11-23T14:24:15.740Z,6.32
2022-11-23T14:31:45.225Z,6.88
2022-11-23T14:39:24.276Z,7.30
2022-11-23T14:46:26.035Z,7.40
2022-11-23T14:53:45.411Z,7.57
2022-11-23T15:07:58.143Z,7.40
2022-11-23T15:14:59.742Z,7.87
2022-11-23T15:22:01.384Z,8.05
2022-11-23T15:29:03.058Z,7.50
2022-11-23T15:36:05.940Z,7.10
2022-11-23T15:43:14.125Z,6.10
2022-11-23T15:50:15.962Z,8.13
2022-11-23T15:57:19.935Z,6.60
2022-11-23T16:04:39.394Z,6.40
2022-11-23T16:11:44.203Z,7.47
2022-11-23T16:18:46.543Z,8.20
2022-11-23T16:26:01.736Z,7.35
2022-11-23T16:33:03.778Z,8.77
2022-11-23T16:40:05.989Z,8.55
2022-11-23T16:47:20.803Z,7.22
2022-11-23T16:54:25.099Z,10.02
2022-11-23T17:01:27.861Z,8.80
2022-11-23T17:08:29.465Z,8.25
2022-11-23T17:15:31.086Z,11.20
2022-11-23T17:22:32.660Z,7.88
2022-11-23T17:29:39.023Z,10.55
2022-11-23T17:36:43.342Z,9.55
2022-11-23T17:43:45.165Z,8.02
2022-11-23T17:50:47.505Z,9.73
2022-11-23T17:57:49.091Z,10.52
2022-11-23T18:04:50.699Z,10.75
2022-11-23T18:11:52.272Z,10.15
2022-11-23T18:18:53.967Z,10.20
2022-11-23T18:26:01.107Z,11.27
2022-11-23T18:33:02.661Z,10.80
2022-11-23T18:40:04.702Z,10.52
2022-11-23T18:47:06.261Z,10.88
2022-11-23T18:54:08.045Z,9.45
2022-11-23T19:01:12.626Z,12.38
2022-11-23T19:08:17.160Z,9.73
2022-11-23T19:15:19.060Z,12.57
2022-11-23T19:22:20.663Z,11.63
2022-11-23T19:29:24.909Z,11.93
2022-11-23T19:36:27.179Z,12.63
2022-11-23T19:43:28.827Z,11.32
2022-11-23T19:50:30.383Z,12.65
2022-11-23T19:57:31.947Z,9.75
2022-11-23T20:04:33.693Z,11.85
2022-11-23T20:11:35.521Z,11.88
2022-11-23T20:18:37.147Z,11.05
2022-11-23T20:25:38.793Z,12.77
2022-11-23T20:32:40.420Z,13.43
2022-11-23T20:39:42.038Z,11.82
2022-11-23T20:54:05.319Z,12.18
2022-11-23T21:01:17.181Z,12.52
2022-11-23T21:08:27.878Z,12.77
2022-11-23T21:15:31.916Z,15.27
2022-11-23T21:22:33.491Z,13.18
2022-11-23T21:29:35.143Z,12.32
2022-11-23T21:36:39.027Z,16.95
2022-11-23T21:43:40.671Z,16.10
2022-11-23T21:50:42.332Z,15.65
2022-11-23T21:57:43.895Z,11.80
2022-11-23T22:04:45.764Z,11.32
2022-11-23T22:11:47.422Z,14.45
2022-11-23T22:18:54.013Z,13.48
2022-11-23T22:26:22.847Z,17.35
2022-11-23T22:33:24.531Z,14.27
2022-11-23T22:40:26.920Z,13.65
2022-11-23T22:47:28.746Z,14.23
2022-11-23T22:54:30.633Z,14.38
2022-11-23T23:01:32.595Z,14.98
2022-11-23T23:08:34.239Z,15.55
2022-11-23T23:15:36.156Z,15.27
2022-11-23T23:22:38.987Z,14.52
2022-11-23T23:29:40.728Z,17.23
2022-11-23T23:36:42.377Z,16.15
2022-11-23T23:43:44.165Z,15.88
2022-11-23T23:50:45.820Z,14.50
2022-11-23T23:57:47.529Z,17.95
